sensor_id;sensor_type;location;lat;lon;timestamp;pressure;altitude;pressure_sealevel;temperature;humidity
62126;BME280;48112;53.282;6.150;2022-10-04T00:00:44;102352.97;;;14.59;75.93
62126;BME280;48112;53.282;6.150;2022-10-04T00:01:49;102357.31;;;14.60;76.10
62126;BME280;48112;53.282;6.150;2022-10-04T00:02:55;102352.31;;;14.62;76.05
62126;BME280;48112;53.282;6.150;2022-10-04T00:04:02;102351.06;;;14.59;76.19
62126;BME280;48112;53.282;6.150;2022-10-04T00:05:10;102353.78;;;14.59;75.79
62126;BME280;48112;53.282;6.150;2022-10-04T00:06:18;102354.91;;;14.58;76.22
62126;BME280;48112;53.282;6.150;2022-10-04T00:07:24;102347.75;;;14.54;76.04
62126;BME280;48112;53.282;6.150;2022-10-04T00:08:30;102348.88;;;14.53;76.30
62126;BME280;48112;53.282;6.150;2022-10-04T00:09:42;102343.84;;;14.43;76.46
62126;BME280;48112;53.282;6.150;2022-10-04T00:10:46;102356.16;;;14.40;76.21
62126;BME280;48112;53.282;6.150;2022-10-04T00:11:52;102342.31;;;14.33;76.54
62126;BME280;48112;53.282;6.150;2022-10-04T00:12:56;102345.66;;;14.30;76.69
62126;BME280;48112;53.282;6.150;2022-10-04T00:14:06;102346.31;;;14.27;77.12
62126;BME280;48112;53.282;6.150;2022-10-04T00:15:18;102344.56;;;14.23;76.73
62126;BME280;48112;53.282;6.150;2022-10-04T00:16:26;102346.78;;;14.21;76.71
62126;BME280;48112;53.282;6.150;2022-10-04T00:17:30;102343.28;;;14.20;76.78
62126;BME280;48112;53.282;6.150;2022-10-04T00:18:38;102342.00;;;14.18;77.05
62126;BME280;48112;53.282;6.150;2022-10-04T00:19:43;102346.34;;;14.19;77.34
62126;BME280;48112;53.282;6.150;2022-10-04T00:21:02;102343.66;;;14.10;77.32
62126;BME280;48112;53.282;6.150;2022-10-04T00:22:13;102344.47;;;14.11;76.76
62126;BME280;48112;53.282;6.150;2022-10-04T00:23:26;102336.97;;;14.08;77.74
62126;BME280;48112;53.282;6.150;2022-10-04T00:24:30;102335.38;;;14.07;77.63
62126;BME280;48112;53.282;6.150;2022-10-04T00:25:34;102338.09;;;14.07;77.98
62126;BME280;48112;53.282;6.150;2022-10-04T00:27:09;102332.41;;;13.91;77.94
62126;BME280;48112;53.282;6.150;2022-10-04T00:29:36;102328.88;;;13.91;78.22
62126;BME280;48112;53.282;6.150;2022-10-04T00:30:38;102323.78;;;13.89;78.33
62126;BME280;48112;53.282;6.150;2022-10-04T00:33:33;102333.56;;;13.82;79.06
62126;BME280;48112;53.282;6.150;2022-10-04T00:34:46;102325.41;;;13.82;78.33
62126;BME280;48112;53.282;6.150;2022-10-04T00:35:49;102332.91;;;13.85;78.50
62126;BME280;48112;53.282;6.150;2022-10-04T00:36:53;102325.09;;;13.83;78.26
62126;BME280;48112;53.282;6.150;2022-10-04T00:37:58;102324.28;;;13.83;78.40
62126;BME280;48112;53.282;6.150;2022-10-04T00:39:16;102326.25;;;13.74;78.64
62126;BME280;48112;53.282;6.150;2022-10-04T00:40:20;102320.50;;;13.75;78.52
62126;BME280;48112;53.282;6.150;2022-10-04T00:41:24;102322.09;;;13.76;78.36
62126;BME280;48112;53.282;6.150;2022-10-04T00:42:51;102316.69;;;13.68;78.52
62126;BME280;48112;53.282;6.150;2022-10-04T00:43:58;102310.63;;;13.71;78.52
62126;BME280;48112;53.282;6.150;2022-10-04T00:45:06;102313.81;;;13.73;78.71
62126;BME280;48112;53.282;6.150;2022-10-04T00:46:15;102312.34;;;13.75;79.41
62126;BME280;48112;53.282;6.150;2022-10-04T00:47:25;102316.34;;;13.78;79.01
62126;BME280;48112;53.282;6.150;2022-10-04T00:48:39;102316.34;;;13.78;79.24
62126;BME280;48112;53.282;6.150;2022-10-04T00:49:46;102319.66;;;13.83;78.82
62126;BME280;48112;53.282;6.150;2022-10-04T00:50:53;102313.59;;;13.86;79.04
62126;BME280;48112;53.282;6.150;2022-10-04T00:52:00;102312.16;;;13.89;78.97
62126;BME280;48112;53.282;6.150;2022-10-04T00:53:12;102311.03;;;13.90;79.23
62126;BME280;48112;53.282;6.150;2022-10-04T00:54:20;102306.84;;;13.92;78.51
62126;BME280;48112;53.282;6.150;2022-10-04T00:55:30;102299.16;;;13.94;78.52
62126;BME280;48112;53.282;6.150;2022-10-04T00:56:39;102310.34;;;13.93;78.84
62126;BME280;48112;53.282;6.150;2022-10-04T00:57:46;102300.63;;;13.92;78.81
62126;BME280;48112;53.282;6.150;2022-10-04T00:59:07;102309.88;;;13.91;79.09
62126;BME280;48112;53.282;6.150;2022-10-04T01:00:17;102313.06;;;13.93;78.77
62126;BME280;48112;53.282;6.150;2022-10-04T01:01:23;102308.94;;;13.95;79.31
62126;BME280;48112;53.282;6.150;2022-10-04T01:02:31;102316.41;;;13.98;79.32
62126;BME280;48112;53.282;6.150;2022-10-04T01:03:37;102314.16;;;14.00;78.87
62126;BME280;48112;53.282;6.150;2022-10-04T01:04:46;102309.53;;;14.01;78.21
62126;BME280;48112;53.282;6.150;2022-10-04T01:05:54;102307.94;;;14.00;78.93
62126;BME280;48112;53.282;6.150;2022-10-04T01:06:58;102316.53;;;14.02;78.95
62126;BME280;48112;53.282;6.150;2022-10-04T01:08:05;102301.38;;;14.01;78.28
62126;BME280;48112;53.282;6.150;2022-10-04T01:09:11;102299.66;;;13.96;78.94
62126;BME280;48112;53.282;6.150;2022-10-04T01:10:18;102303.81;;;13.94;78.59
62126;BME280;48112;53.282;6.150;2022-10-04T01:11:24;102295.97;;;13.92;79.02
62126;BME280;48112;53.282;6.150;2022-10-04T01:12:38;102298.56;;;13.89;79.24
62126;BME280;48112;53.282;6.150;2022-10-04T01:13:45;102295.53;;;13.90;79.37
62126;BME280;48112;53.282;6.150;2022-10-04T01:14:55;102297.13;;;13.91;79.12
62126;BME280;48112;53.282;6.150;2022-10-04T01:16:04;102295.97;;;13.92;79.27
62126;BME280;48112;53.282;6.150;2022-10-04T01:17:12;102294.88;;;13.93;79.01
62126;BME280;48112;53.282;6.150;2022-10-04T01:18:27;102295.03;;;13.97;78.90
62126;BME280;48112;53.282;6.150;2022-10-04T01:19:30;102293.75;;;13.94;79.32
62126;BME280;48112;53.282;6.150;2022-10-04T01:20:34;102289.25;;;13.98;79.29
62126;BME280;48112;53.282;6.150;2022-10-04T01:21:38;102290.03;;;13.99;78.87
62126;BME280;48112;53.282;6.150;2022-10-04T01:22:49;102283.03;;;13.98;79.22
62126;BME280;48112;53.282;6.150;2022-10-04T01:23:52;102289.25;;;13.98;79.18
62126;BME280;48112;53.282;6.150;2022-10-04T01:25:04;102284.81;;;13.94;78.82
62126;BME280;48112;53.282;6.150;2022-10-04T01:26:33;102281.81;;;13.87;79.13
62126;BME280;48112;53.282;6.150;2022-10-04T01:27:40;102280.22;;;13.86;79.55
62126;BME280;48112;53.282;6.150;2022-10-04T01:28:44;102286.28;;;13.83;79.60
62126;BME280;48112;53.282;6.150;2022-10-04T01:29:46;102280.22;;;13.86;80.01
62126;BME280;48112;53.282;6.150;2022-10-04T01:30:52;102272.84;;;13.86;79.75
62126;BME280;48112;53.282;6.150;2022-10-04T01:31:55;102271.44;;;13.89;79.44
62126;BME280;48112;53.282;6.150;2022-10-04T01:32:59;102270.28;;;13.90;79.14
62126;BME280;48112;53.282;6.150;2022-10-04T01:34:02;102270.28;;;13.90;79.41
62126;BME280;48112;53.282;6.150;2022-10-04T01:35:08;102274.81;;;13.86;79.45
62126;BME280;48112;53.282;6.150;2022-10-04T01:36:10;102266.19;;;13.84;78.98
62126;BME280;48112;53.282;6.150;2022-10-04T01:37:13;102272.41;;;13.84;79.52
62126;BME280;48112;53.282;6.150;2022-10-04T01:38:17;102261.84;;;13.83;79.51
62126;BME280;48112;53.282;6.150;2022-10-04T01:39:22;102263.66;;;13.79;79.62
62126;BME280;48112;53.282;6.150;2022-10-04T01:40:24;102263.66;;;13.79;79.48
62126;BME280;48112;53.282;6.150;2022-10-04T01:41:32;102254.25;;;13.76;79.13
62126;BME280;48112;53.282;6.150;2022-10-04T01:42:42;102255.69;;;13.74;79.79
62126;BME280;48112;53.282;6.150;2022-10-04T01:43:49;102257.59;;;13.73;79.64
62126;BME280;48112;53.282;6.150;2022-10-04T01:44:57;102256.00;;;13.72;79.96
62126;BME280;48112;53.282;6.150;2022-10-04T01:46:06;102254.88;;;13.73;79.75
62126;BME280;48112;53.282;6.150;2022-10-04T01:47:13;102251.88;;;13.75;79.91
62126;BME280;48112;53.282;6.150;2022-10-04T01:48:20;102243.72;;;13.75;80.20
62126;BME280;48112;53.282;6.150;2022-10-04T01:49:26;102246.88;;;13.77;79.71
62126;BME280;48112;53.282;6.150;2022-10-04T01:50:33;102247.69;;;13.77;79.44
62126;BME280;48112;53.282;6.150;2022-10-04T01:51:43;102246.88;;;13.77;79.83
62126;BME280;48112;53.282;6.150;2022-10-04T01:52:53;102244.16;;;13.77;79.39
62126;BME280;48112;53.282;6.150;2022-10-04T01:54:00;102249.16;;;13.75;79.29
62126;BME280;48112;53.282;6.150;2022-10-04T01:55:08;102243.25;;;13.73;79.52
62126;BME280;48112;53.282;6.150;2022-10-04T01:56:15;102244.66;;;13.70;79.36
62126;BME280;48112;53.282;6.150;2022-10-04T01:57:22;102234.16;;;13.69;79.93
62126;BME280;48112;53.282;6.150;2022-10-04T01:58:27;102242.28;;;13.69;79.74
62126;BME280;48112;53.282;6.150;2022-10-04T01:59:37;102237.50;;;13.66;79.63
62126;BME280;48112;53.282;6.150;2022-10-04T02:00:44;102231.31;;;13.65;79.57
62126;BME280;48112;53.282;6.150;2022-10-04T02:01:51;102231.16;;;13.62;79.42
62126;BME280;48112;53.282;6.150;2022-10-04T02:02:59;102230.03;;;13.63;80.10
62126;BME280;48112;53.282;6.150;2022-10-04T02:04:08;102230.69;;;13.60;79.35
62126;BME280;48112;53.282;6.150;2022-10-04T02:05:17;102224.34;;;13.56;79.79
62126;BME280;48112;53.282;6.150;2022-10-04T02:06:22;102227.38;;;13.54;80.15
62126;BME280;48112;53.282;6.150;2022-10-04T02:07:28;102224.66;;;13.54;79.42
62126;BME280;48112;53.282;6.150;2022-10-04T02:08:36;102232.31;;;13.52;79.92
62126;BME280;48112;53.282;6.150;2022-10-04T02:09:43;102228.31;;;13.49;80.33
62126;BME280;48112;53.282;6.150;2022-10-04T02:10:48;102229.13;;;13.50;79.76
62126;BME280;48112;53.282;6.150;2022-10-04T02:11:52;102231.03;;;13.49;80.32
62126;BME280;48112;53.282;6.150;2022-10-04T02:12:55;102222.91;;;13.49;79.46
62126;BME280;48112;53.282;6.150;2022-10-04T02:13:58;102219.75;;;13.47;79.83
62126;BME280;48112;53.282;6.150;2022-10-04T02:15:06;102218.13;;;13.46;79.95
62126;BME280;48112;53.282;6.150;2022-10-04T02:16:10;102220.41;;;13.44;80.20
62126;BME280;48112;53.282;6.150;2022-10-04T02:17:14;102224.69;;;13.45;79.72
62126;BME280;48112;53.282;6.150;2022-10-04T02:18:19;102223.09;;;13.44;79.89
62126;BME280;48112;53.282;6.150;2022-10-04T02:19:30;102217.53;;;13.41;79.82
62126;BME280;48112;53.282;6.150;2022-10-04T02:20:33;102228.72;;;13.39;79.96
62126;BME280;48112;53.282;6.150;2022-10-04T02:21:36;102229.47;;;13.40;80.32
62126;BME280;48112;53.282;6.150;2022-10-04T02:22:39;102227.91;;;13.39;79.60
62126;BME280;48112;53.282;6.150;2022-10-04T02:23:44;102223.47;;;13.34;80.54
62126;BME280;48112;53.282;6.150;2022-10-04T02:24:50;102220.75;;;13.34;79.78
62126;BME280;48112;53.282;6.150;2022-10-04T02:25:53;102215.97;;;13.31;79.88
62126;BME280;48112;53.282;6.150;2022-10-04T02:26:56;102220.59;;;13.31;79.88
62126;BME280;48112;53.282;6.150;2022-10-04T02:27:58;102206.56;;;13.29;80.54
62126;BME280;48112;53.282;6.150;2022-10-04T02:29:01;102207.69;;;13.28;80.40
62126;BME280;48112;53.282;6.150;2022-10-04T02:30:05;102207.22;;;13.26;80.48
62126;BME280;48112;53.282;6.150;2022-10-04T02:31:09;102200.03;;;13.21;80.06
62126;BME280;48112;53.282;6.150;2022-10-04T02:32:30;102198.31;;;13.17;80.19
62126;BME280;48112;53.282;6.150;2022-10-04T02:33:55;102199.28;;;13.12;80.57
62126;BME280;48112;53.282;6.150;2022-10-04T02:34:58;102211.25;;;13.11;80.80
62126;BME280;48112;53.282;6.150;2022-10-04T02:36:01;102204.22;;;13.10;79.95
62126;BME280;48112;53.282;6.150;2022-10-04T02:37:04;102208.06;;;13.09;80.87
62126;BME280;48112;53.282;6.150;2022-10-04T02:38:11;102199.47;;;13.07;80.65
62126;BME280;48112;53.282;6.150;2022-10-04T02:39:19;102202.03;;;13.04;80.86
62126;BME280;48112;53.282;6.150;2022-10-04T02:40:30;102196.44;;;13.00;80.85
62126;BME280;48112;53.282;6.150;2022-10-04T02:41:38;102192.13;;;12.99;80.92
62126;BME280;48112;53.282;6.150;2022-10-04T02:42:47;102189.72;;;12.98;81.05
62126;BME280;48112;53.282;6.150;2022-10-04T02:43:55;102178.88;;;12.98;81.06
62126;BME280;48112;53.282;6.150;2022-10-04T02:45:03;102174.91;;;12.95;81.22
62126;BME280;48112;53.282;6.150;2022-10-04T02:46:10;102174.44;;;12.93;81.34
62126;BME280;48112;53.282;6.150;2022-10-04T02:47:18;102175.88;;;12.91;81.29
62126;BME280;48112;53.282;6.150;2022-10-04T02:48:38;102171.59;;;12.81;81.79
62126;BME280;48112;53.282;6.150;2022-10-04T02:49:44;102166.66;;;12.83;81.57
62126;BME280;48112;53.282;6.150;2022-10-04T02:50:49;102168.25;;;12.84;81.39
62126;BME280;48112;53.282;6.150;2022-10-04T02:51:59;102170.50;;;12.82;81.21
62126;BME280;48112;53.282;6.150;2022-10-04T02:53:11;102168.44;;;12.79;81.06
62126;BME280;48112;53.282;6.150;2022-10-04T02:54:21;102171.91;;;12.80;81.42
62126;BME280;48112;53.282;6.150;2022-10-04T02:55:30;102162.53;;;12.77;81.12
62126;BME280;48112;53.282;6.150;2022-10-04T02:56:34;102160.94;;;12.76;81.54
62126;BME280;48112;53.282;6.150;2022-10-04T02:57:40;102163.97;;;12.75;81.63
62126;BME280;48112;53.282;6.150;2022-10-04T02:58:44;102156.94;;;12.74;81.28
62126;BME280;48112;53.282;6.150;2022-10-04T02:59:46;102157.75;;;12.74;81.84
62126;BME280;48112;53.282;6.150;2022-10-04T03:00:51;102152.34;;;12.74;81.76
62126;BME280;48112;53.282;6.150;2022-10-04T03:01:57;102153.75;;;12.72;81.54
62126;BME280;48112;53.282;6.150;2022-10-04T03:03:18;102168.28;;;12.67;81.85
62126;BME280;48112;53.282;6.150;2022-10-04T03:04:24;102161.44;;;12.70;82.10
62126;BME280;48112;53.282;6.150;2022-10-04T03:05:28;102164.47;;;12.68;82.20
62126;BME280;48112;53.282;6.150;2022-10-04T03:06:31;102164.91;;;12.70;82.09
62126;BME280;48112;53.282;6.150;2022-10-04T03:07:35;102160.63;;;12.69;81.71
62126;BME280;48112;53.282;6.150;2022-10-04T03:08:46;102161.28;;;12.66;81.71
62126;BME280;48112;53.282;6.150;2022-10-04T03:09:50;102160.47;;;12.66;81.88
62126;BME280;48112;53.282;6.150;2022-10-04T03:10:54;102160.47;;;12.66;81.87
62126;BME280;48112;53.282;6.150;2022-10-04T03:11:58;102152.66;;;12.64;81.93
62126;BME280;48112;53.282;6.150;2022-10-04T03:13:02;102154.88;;;12.62;82.37
62126;BME280;48112;53.282;6.150;2022-10-04T03:14:08;102153.31;;;12.61;82.48
62126;BME280;48112;53.282;6.150;2022-10-04T03:15:15;102160.94;;;12.59;82.13
62126;BME280;48112;53.282;6.150;2022-10-04T03:16:17;102162.09;;;12.58;82.34
62126;BME280;48112;53.282;6.150;2022-10-04T03:17:21;102157.00;;;12.57;82.50
62126;BME280;48112;53.282;6.150;2022-10-04T03:18:23;102148.06;;;12.56;82.09
62126;BME280;48112;53.282;6.150;2022-10-04T03:19:28;102151.41;;;12.53;82.77
62126;BME280;48112;53.282;6.150;2022-10-04T03:20:31;102152.22;;;12.54;82.73
62126;BME280;48112;53.282;6.150;2022-10-04T03:21:39;102150.59;;;12.53;82.93
62126;BME280;48112;53.282;6.150;2022-10-04T03:22:44;102157.94;;;12.52;82.47
62126;BME280;48112;53.282;6.150;2022-10-04T03:23:48;102152.84;;;12.51;82.45
62126;BME280;48112;53.282;6.150;2022-10-04T03:24:54;102152.06;;;12.50;82.74
62126;BME280;48112;53.282;6.150;2022-10-04T03:26:02;102155.41;;;12.47;82.68
62126;BME280;48112;53.282;6.150;2022-10-04T03:27:06;102152.69;;;12.47;82.89
62126;BME280;48112;53.282;6.150;2022-10-04T03:28:10;102156.53;;;12.46;82.99
62126;BME280;48112;53.282;6.150;2022-10-04T03:29:13;102150.31;;;12.46;82.74
62126;BME280;48112;53.282;6.150;2022-10-04T03:30:17;102154.94;;;12.45;82.49
62126;BME280;48112;53.282;6.150;2022-10-04T03:31:20;102160.34;;;12.45;82.94
62126;BME280;48112;53.282;6.150;2022-10-04T03:32:24;102163.06;;;12.45;82.66
62126;BME280;48112;53.282;6.150;2022-10-04T03:33:27;102164.19;;;12.44;82.57
62126;BME280;48112;53.282;6.150;2022-10-04T03:34:34;102160.34;;;12.45;82.93
62126;BME280;48112;53.282;6.150;2022-10-04T03:35:38;102157.94;;;12.44;82.78
62126;BME280;48112;53.282;6.150;2022-10-04T03:36:42;102161.47;;;12.44;82.87
62126;BME280;48112;53.282;6.150;2022-10-04T03:37:45;102166.09;;;12.44;82.99
62126;BME280;48112;53.282;6.150;2022-10-04T03:38:48;102157.94;;;12.44;82.87
62126;BME280;48112;53.282;6.150;2022-10-04T03:39:55;102157.16;;;12.43;83.23
62126;BME280;48112;53.282;6.150;2022-10-04T03:41:01;102162.56;;;12.43;82.63
62126;BME280;48112;53.282;6.150;2022-10-04T03:42:09;102157.94;;;12.44;82.77
62126;BME280;48112;53.282;6.150;2022-10-04T03:43:13;102162.56;;;12.43;83.08
62126;BME280;48112;53.282;6.150;2022-10-04T03:44:17;102161.47;;;12.44;83.08
62126;BME280;48112;53.282;6.150;2022-10-04T03:45:20;102157.94;;;12.44;82.83
62126;BME280;48112;53.282;6.150;2022-10-04T03:46:26;102152.84;;;12.42;82.94
62126;BME280;48112;53.282;6.150;2022-10-04T03:47:31;102159.84;;;12.43;82.99
62126;BME280;48112;53.282;6.150;2022-10-04T03:48:40;102148.56;;;12.41;83.16
62126;BME280;48112;53.282;6.150;2022-10-04T03:49:44;102150.00;;;12.39;83.10
62126;BME280;48112;53.282;6.150;2022-10-04T03:50:52;102147.59;;;12.37;82.75
62126;BME280;48112;53.282;6.150;2022-10-04T03:51:55;102149.84;;;12.35;83.26
62126;BME280;48112;53.282;6.150;2022-10-04T03:53:02;102150.97;;;12.34;83.26
62126;BME280;48112;53.282;6.150;2022-10-04T03:54:07;102143.47;;;12.31;83.15
62126;BME280;48112;53.282;6.150;2022-10-04T03:55:14;102154.63;;;12.30;83.17
62126;BME280;48112;53.282;6.150;2022-10-04T03:56:20;102145.56;;;12.26;83.31
62126;BME280;48112;53.282;6.150;2022-10-04T03:57:26;102148.09;;;12.22;83.46
62126;BME280;48112;53.282;6.150;2022-10-04T03:58:29;102143.78;;;12.21;83.62
62126;BME280;48112;53.282;6.150;2022-10-04T03:59:33;102142.84;;;12.17;83.42
62126;BME280;48112;53.282;6.150;2022-10-04T04:00:40;102143.97;;;12.16;83.83
62126;BME280;48112;53.282;6.150;2022-10-04T04:01:48;102140.28;;;12.12;83.82
62126;BME280;48112;53.282;6.150;2022-10-04T04:02:56;102141.41;;;12.11;84.00
62126;BME280;48112;53.282;6.150;2022-10-04T04:04:05;102138.56;;;12.07;84.19
62126;BME280;48112;53.282;6.150;2022-10-04T04:05:17;102132.66;;;12.05;83.96
62126;BME280;48112;53.282;6.150;2022-10-04T04:06:22;102132.97;;;12.04;84.10
62126;BME280;48112;53.282;6.150;2022-10-04T04:07:29;102129.78;;;12.02;84.44
62126;BME280;48112;53.282;6.150;2022-10-04T04:08:40;102126.94;;;11.98;84.42
62126;BME280;48112;53.282;6.150;2022-10-04T04:09:44;102128.84;;;11.98;84.31
62126;BME280;48112;53.282;6.150;2022-10-04T04:10:51;102138.69;;;11.94;84.56
62126;BME280;48112;53.282;6.150;2022-10-04T04:11:56;102130.88;;;11.92;84.36
62126;BME280;48112;53.282;6.150;2022-10-04T04:13:20;102121.97;;;11.83;85.09
62126;BME280;48112;53.282;6.150;2022-10-04T04:14:25;102121.34;;;11.86;85.03
62126;BME280;48112;53.282;6.150;2022-10-04T04:15:31;102131.69;;;11.84;84.89
62126;BME280;48112;53.282;6.150;2022-10-04T04:16:35;102132.00;;;11.83;85.04
62126;BME280;48112;53.282;6.150;2022-10-04T04:17:39;102131.53;;;11.81;85.23
62126;BME280;48112;53.282;6.150;2022-10-04T04:18:42;102136.16;;;11.80;84.63
62126;BME280;48112;53.282;6.150;2022-10-04T04:19:46;102132.63;;;11.80;85.12
62126;BME280;48112;53.282;6.150;2022-10-04T04:20:49;102138.03;;;11.80;85.25
62126;BME280;48112;53.282;6.150;2022-10-04T04:21:54;102138.69;;;11.77;85.11
62126;BME280;48112;53.282;6.150;2022-10-04T04:23:00;102138.19;;;11.75;85.06
62126;BME280;48112;53.282;6.150;2022-10-04T04:24:05;102131.69;;;11.76;85.25
62126;BME280;48112;53.282;6.150;2022-10-04T04:25:15;102129.28;;;11.74;85.40
62126;BME280;48112;53.282;6.150;2022-10-04T04:26:23;102125.31;;;11.72;85.52
62126;BME280;48112;53.282;6.150;2022-10-04T04:27:29;102118.75;;;11.56;85.81
62126;BME280;48112;53.282;6.150;2022-10-04T04:28:40;102120.50;;;11.60;85.66
62126;BME280;48112;53.282;6.150;2022-10-04T04:29:47;102122.59;;;11.63;85.45
62126;BME280;48112;53.282;6.150;2022-10-04T04:30:55;102111.47;;;11.65;85.79
62126;BME280;48112;53.282;6.150;2022-10-04T04:32:00;102120.06;;;11.67;85.67
62126;BME280;48112;53.282;6.150;2022-10-04T04:33:08;102121.16;;;11.66;85.42
62126;BME280;48112;53.282;6.150;2022-10-04T04:34:23;102107.94;;;11.64;85.55
62126;BME280;48112;53.282;6.150;2022-10-04T04:35:30;102115.75;;;11.66;85.58
62126;BME280;48112;53.282;6.150;2022-10-04T04:36:39;102114.66;;;11.67;85.35
62126;BME280;48112;53.282;6.150;2022-10-04T04:37:42;102107.63;;;11.66;85.64
62126;BME280;48112;53.282;6.150;2022-10-04T04:38:44;102110.81;;;11.68;85.66
62126;BME280;48112;53.282;6.150;2022-10-04T04:40:16;102107.16;;;11.64;85.71
62126;BME280;48112;53.282;6.150;2022-10-04T04:41:20;102113.38;;;11.64;85.63
62126;BME280;48112;53.282;6.150;2022-10-04T04:42:31;102112.56;;;11.64;85.45
62126;BME280;48112;53.282;6.150;2022-10-04T04:43:35;102101.72;;;11.64;85.54
62126;BME280;48112;53.282;6.150;2022-10-04T04:44:38;102107.94;;;11.64;85.67
62126;BME280;48112;53.282;6.150;2022-10-04T04:45:42;102101.25;;;11.62;86.00
62126;BME280;48112;53.282;6.150;2022-10-04T04:46:44;102101.72;;;11.64;85.68
62126;BME280;48112;53.282;6.150;2022-10-04T04:47:48;102108.75;;;11.65;85.95
62126;BME280;48112;53.282;6.150;2022-10-04T04:48:56;102110.66;;;11.64;85.56
62126;BME280;48112;53.282;6.150;2022-10-04T04:50:05;102107.94;;;11.64;86.09
62126;BME280;48112;53.282;6.150;2022-10-04T04:51:13;102113.69;;;11.63;85.59
62126;BME280;48112;53.282;6.150;2022-10-04T04:52:20;102112.19;;;11.48;86.28
62126;BME280;48112;53.282;6.150;2022-10-04T04:53:27;102109.66;;;11.52;85.89
62126;BME280;48112;53.282;6.150;2022-10-04T04:54:30;102117.63;;;11.57;85.79
62126;BME280;48112;53.282;6.150;2022-10-04T04:55:37;102107.59;;;11.57;86.19
62126;BME280;48112;53.282;6.150;2022-10-04T04:57:01;102102.03;;;11.54;86.07
62126;BME280;48112;53.282;6.150;2022-10-04T04:58:07;102100.09;;;11.54;85.93
62126;BME280;48112;53.282;6.150;2022-10-04T04:59:10;102102.03;;;11.54;85.95
62126;BME280;48112;53.282;6.150;2022-10-04T05:00:16;102106.31;;;11.55;85.26
62126;BME280;48112;53.282;6.150;2022-10-04T05:01:22;102107.44;;;11.54;86.05
62126;BME280;48112;53.282;6.150;2022-10-04T05:02:32;102105.06;;;11.52;86.05
62126;BME280;48112;53.282;6.150;2022-10-04T05:03:38;102098.84;;;11.52;85.87
62126;BME280;48112;53.282;6.150;2022-10-04T05:04:41;102106.63;;;11.53;85.84
62126;BME280;48112;53.282;6.150;2022-10-04T05:05:44;102101.22;;;11.53;85.98
62126;BME280;48112;53.282;6.150;2022-10-04T05:06:58;102102.16;;;11.49;86.36
62126;BME280;48112;53.282;6.150;2022-10-04T05:08:19;102102.31;;;11.44;86.14
62126;BME280;48112;53.282;6.150;2022-10-04T05:09:24;102103.28;;;11.48;86.02
62126;BME280;48112;53.282;6.150;2022-10-04T05:10:28;102111.88;;;11.50;85.83
62126;BME280;48112;53.282;6.150;2022-10-04T05:11:34;102109.66;;;11.52;85.75
62126;BME280;48112;53.282;6.150;2022-10-04T05:12:38;102113.47;;;11.51;85.98
62126;BME280;48112;53.282;6.150;2022-10-04T05:13:44;102103.75;;;11.50;86.12
62126;BME280;48112;53.282;6.150;2022-10-04T05:14:51;102095.97;;;11.48;85.90
62126;BME280;48112;53.282;6.150;2022-10-04T05:15:53;102107.25;;;11.50;85.86
62126;BME280;48112;53.282;6.150;2022-10-04T05:17:00;102104.88;;;11.49;85.78
62126;BME280;48112;53.282;6.150;2022-10-04T05:18:12;102092.00;;;11.46;85.74
62126;BME280;48112;53.282;6.150;2022-10-04T05:19:20;102090.88;;;11.47;85.63
62126;BME280;48112;53.282;6.150;2022-10-04T05:20:24;102092.00;;;11.46;85.93
62126;BME280;48112;53.282;6.150;2022-10-04T05:21:29;102092.00;;;11.46;86.05
62126;BME280;48112;53.282;6.150;2022-10-04T05:22:32;102091.50;;;11.44;85.81
62126;BME280;48112;53.282;6.150;2022-10-04T05:23:35;102093.72;;;11.42;85.72
62126;BME280;48112;53.282;6.150;2022-10-04T05:24:39;102099.13;;;11.42;86.33
62126;BME280;48112;53.282;6.150;2022-10-04T05:25:43;102115.66;;;11.40;86.18
62126;BME280;48112;53.282;6.150;2022-10-04T05:26:48;102111.06;;;11.41;86.38
62126;BME280;48112;53.282;6.150;2022-10-04T05:27:52;102109.00;;;11.38;86.30
62126;BME280;48112;53.282;6.150;2022-10-04T05:28:58;102104.69;;;11.37;86.29
62126;BME280;48112;53.282;6.150;2022-10-04T05:30:05;102104.22;;;11.35;86.36
62126;BME280;48112;53.282;6.150;2022-10-04T05:31:28;102101.66;;;11.30;86.30
62126;BME280;48112;53.282;6.150;2022-10-04T05:32:42;102109.75;;;11.30;86.50
62126;BME280;48112;53.282;6.150;2022-10-04T05:33:51;102107.06;;;11.30;86.23
62126;BME280;48112;53.282;6.150;2022-10-04T05:34:56;102110.88;;;11.29;86.69
62126;BME280;48112;53.282;6.150;2022-10-04T05:36:23;102106.38;;;11.24;86.42
62126;BME280;48112;53.282;6.150;2022-10-04T05:37:50;102101.16;;;11.19;86.95
62126;BME280;48112;53.282;6.150;2022-10-04T05:38:58;102099.09;;;11.25;87.22
62126;BME280;48112;53.282;6.150;2022-10-04T05:40:22;102101.63;;;11.21;86.89
62126;BME280;48112;53.282;6.150;2022-10-04T05:41:31;102105.13;;;11.22;87.04
62126;BME280;48112;53.282;6.150;2022-10-04T05:42:39;102091.59;;;11.22;86.75
62126;BME280;48112;53.282;6.150;2022-10-04T05:43:47;102101.31;;;11.23;86.60
62126;BME280;48112;53.282;6.150;2022-10-04T05:44:53;102099.09;;;11.25;86.63
62126;BME280;48112;53.282;6.150;2022-10-04T05:46:12;102097.66;;;11.19;87.04
62126;BME280;48112;53.282;6.150;2022-10-04T05:47:17;102091.91;;;11.20;86.91
62126;BME280;48112;53.282;6.150;2022-10-04T05:48:24;102084.13;;;11.19;86.95
62126;BME280;48112;53.282;6.150;2022-10-04T05:49:29;102083.00;;;11.20;86.70
62126;BME280;48112;53.282;6.150;2022-10-04T05:50:37;102080.31;;;11.20;86.68
62126;BME280;48112;53.282;6.150;2022-10-04T05:51:47;102080.94;;;11.17;86.85
62126;BME280;48112;53.282;6.150;2022-10-04T05:52:51;102078.56;;;11.15;86.63
62126;BME280;48112;53.282;6.150;2022-10-04T05:53:56;102090.16;;;11.16;87.14
62126;BME280;48112;53.282;6.150;2022-10-04T05:55:15;102085.22;;;11.09;87.01